Terminal Aerodrome Forecast
Issued by NWS Sterling, VA

Current Version | Previous Version | Graphics & Text | Print | Product List | Glossary On
Versions: 1 2 3 4 5 6 7 8 9 10 11 12 13 14 15 16 17 18 19 20
000
FTUS41 KLWX 010536
TAFMRB
TAF
KMRB 010536Z 0106/0206 20004KT P6SM BKN060
     FM010800 VRB03KT 3SM BR BKN060
     FM011300 VRB03KT P6SM -SHRA BKN070
     FM011600 26004KT P6SM TSRA BKN050CB
     FM011800 28005KT P6SM SHRA BKN040
     FM012200 34004KT P6SM SHRA OVC040=

USA.gov is the U.S. government's official web portal to all federal, state and local government web resources and services.